createdAt,value
2022-08-30T00:01:03.103Z,5.97
2022-08-30T00:04:08.335Z,5.63
2022-08-30T00:07:11.281Z,6.57
2022-08-30T00:10:14.320Z,6.60
2022-08-30T00:13:17.743Z,6.00
2022-08-30T00:16:21.706Z,6.25
2022-08-30T00:19:24.916Z,5.87
2022-08-30T00:22:27.898Z,5.87
2022-08-30T00:25:30.871Z,6.13
2022-08-30T00:28:34.107Z,6.45
2022-08-30T00:31:37.092Z,6.13
2022-08-30T00:34:40.044Z,6.40
2022-08-30T00:37:43.558Z,6.10
2022-08-30T00:40:46.832Z,6.25
2022-08-30T00:43:49.875Z,5.93
2022-08-30T00:46:52.845Z,5.95
2022-08-30T00:49:56.876Z,6.00
2022-08-30T00:53:01.428Z,6.50
2022-08-30T00:56:04.677Z,5.75
2022-08-30T00:59:07.692Z,5.75
2022-08-30T01:02:10.952Z,5.85
2022-08-30T01:05:16.231Z,5.83
2022-08-30T01:08:22.302Z,5.83
2022-08-30T01:11:25.677Z,5.70
2022-08-30T01:14:28.788Z,6.47
2022-08-30T01:17:31.725Z,5.93
2022-08-30T01:21:06.949Z,6.30
2022-08-30T01:24:10.111Z,6.10
2022-08-30T01:27:14.714Z,6.32
2022-08-30T01:30:17.674Z,6.25
2022-08-30T01:33:20.656Z,6.40
2022-08-30T01:36:23.651Z,5.50
2022-08-30T01:39:26.590Z,6.10
2022-08-30T01:42:29.548Z,5.95
2022-08-30T01:45:32.589Z,5.72
2022-08-30T01:48:35.622Z,5.57
2022-08-30T01:51:38.972Z,5.90
2022-08-30T01:54:42.333Z,5.90
2022-08-30T01:57:45.352Z,5.90
2022-08-30T02:00:48.313Z,5.40
2022-08-30T02:04:02.319Z,6.00
2022-08-30T02:07:06.385Z,5.80
2022-08-30T02:10:09.795Z,5.53
2022-08-30T02:13:13.543Z,5.28
2022-08-30T02:16:18.828Z,6.00
2022-08-30T02:19:21.868Z,5.60
2022-08-30T02:22:24.840Z,5.17
2022-08-30T02:25:27.807Z,5.83
2022-08-30T02:28:30.844Z,5.45
2022-08-30T02:31:33.786Z,5.70
2022-08-30T02:34:36.810Z,5.75
2022-08-30T02:37:39.766Z,5.23
2022-08-30T02:40:44.460Z,5.00
2022-08-30T02:43:47.654Z,5.72
2022-08-30T02:46:50.602Z,5.53
2022-08-30T02:49:53.573Z,5.82
2022-08-30T02:52:56.521Z,5.60
2022-08-30T02:55:59.469Z,5.80
2022-08-30T02:59:02.888Z,6.05
2022-08-30T03:02:05.878Z,5.82
2022-08-30T03:05:09.767Z,6.13
2022-08-30T03:08:13.010Z,5.97
2022-08-30T03:11:15.998Z,5.67
2022-08-30T03:14:18.971Z,6.45
2022-08-30T03:17:21.932Z,6.68
2022-08-30T03:20:25.149Z,6.35
2022-08-30T03:23:28.272Z,6.33
2022-08-30T03:26:31.235Z,5.80
2022-08-30T03:29:34.392Z,6.70
2022-08-30T03:32:37.459Z,6.90
2022-08-30T03:35:40.705Z,6.45
2022-08-30T03:38:43.666Z,6.40
2022-08-30T03:41:46.606Z,6.60
2022-08-30T03:44:49.569Z,7.32
2022-08-30T03:47:52.510Z,6.88
2022-08-30T03:50:55.534Z,5.80
2022-08-30T03:53:58.557Z,6.20
2022-08-30T03:57:01.517Z,5.60
2022-08-30T04:00:06.463Z,5.82
2022-08-30T04:03:14.326Z,5.88
2022-08-30T04:06:17.428Z,6.38
2022-08-30T04:09:20.478Z,5.73
2022-08-30T04:12:23.416Z,6.30
2022-08-30T04:15:26.369Z,5.88
2022-08-30T04:18:29.902Z,5.22
2022-08-30T04:21:32.874Z,6.28
2022-08-30T04:24:38.476Z,6.40
2022-08-30T04:27:41.464Z,6.83
2022-08-30T04:30:44.732Z,6.00
2022-08-30T04:33:47.705Z,6.25
2022-08-30T04:36:50.659Z,7.28
2022-08-30T04:39:57.849Z,6.57
2022-08-30T04:43:00.846Z,6.83
2022-08-30T04:46:06.899Z,7.20
2022-08-30T04:49:09.973Z,6.97
2022-08-30T04:52:13.002Z,7.25
2022-08-30T04:55:19.978Z,7.30
2022-08-30T04:58:23.583Z,7.17
2022-08-30T05:01:28.556Z,7.38
2022-08-30T05:04:31.586Z,7.20
2022-08-30T05:07:34.571Z,7.35
2022-08-30T05:10:45.065Z,6.90
2022-08-30T05:13:49.770Z,7.37
2022-08-30T05:16:52.776Z,7.65
2022-08-30T05:19:55.759Z,7.50
2022-08-30T05:22:58.756Z,7.20
2022-08-30T05:26:25.352Z,6.87
2022-08-30T05:29:28.345Z,7.30
2022-08-30T05:32:31.366Z,7.32
2022-08-30T05:35:34.335Z,6.60
2022-08-30T05:38:37.335Z,7.28
2022-08-30T05:41:41.688Z,6.67
2022-08-30T05:44:44.634Z,6.57
2022-08-30T05:47:47.892Z,7.30
2022-08-30T05:50:50.823Z,7.20
2022-08-30T05:53:54.209Z,7.03
2022-08-30T05:56:57.245Z,6.80
2022-08-30T06:00:01.675Z,6.80
2022-08-30T06:03:15.025Z,7.55
2022-08-30T06:06:18.044Z,6.70
2022-08-30T06:09:21.153Z,7.03
2022-08-30T06:12:24.149Z,6.70
2022-08-30T06:15:27.091Z,6.60
2022-08-30T06:18:30.309Z,7.07
2022-08-30T06:21:37.435Z,7.43
2022-08-30T06:24:56.960Z,6.20
2022-08-30T06:28:00.661Z,6.70
2022-08-30T06:31:10.271Z,6.97
2022-08-30T06:34:13.456Z,6.45
2022-08-30T06:37:29.481Z,6.68
2022-08-30T06:40:32.999Z,6.40
2022-08-30T06:43:36.107Z,5.83
2022-08-30T06:46:39.254Z,5.90
2022-08-30T06:49:42.276Z,6.30
2022-08-30T06:52:45.380Z,6.50
2022-08-30T06:56:04.320Z,5.90
2022-08-30T06:59:07.320Z,6.60
2022-08-30T07:02:10.477Z,6.20
2022-08-30T07:05:18.141Z,6.00
2022-08-30T07:08:23.085Z,6.78
2022-08-30T07:11:36.546Z,6.45
2022-08-30T07:14:39.622Z,6.27
2022-08-30T07:18:00.992Z,6.80
2022-08-30T07:21:11.645Z,7.28
2022-08-30T07:24:14.655Z,6.93
2022-08-30T07:27:17.607Z,6.28
2022-08-30T07:30:20.594Z,6.57
2022-08-30T07:33:23.551Z,6.63
2022-08-30T07:36:26.563Z,6.18
2022-08-30T07:39:29.557Z,6.45
2022-08-30T07:42:34.837Z,6.07
2022-08-30T07:45:38.374Z,6.40
2022-08-30T07:48:41.475Z,6.77
2022-08-30T07:51:47.202Z,6.40
2022-08-30T07:54:52.863Z,6.53
2022-08-30T07:57:56.405Z,6.50
2022-08-30T08:00:59.679Z,6.07
2022-08-30T08:04:02.932Z,5.90
2022-08-30T08:07:05.926Z,6.53
2022-08-30T08:10:09.383Z,6.15
2022-08-30T08:13:12.439Z,5.40
2022-08-30T08:16:15.853Z,6.23
2022-08-30T08:19:20.451Z,6.73
2022-08-30T08:22:23.413Z,6.32
2022-08-30T08:25:27.044Z,6.43
2022-08-30T08:28:30.144Z,5.80
2022-08-30T08:31:33.579Z,6.03
2022-08-30T08:34:37.069Z,5.97
2022-08-30T08:37:40.234Z,5.78
2022-08-30T08:41:03.828Z,5.18
2022-08-30T08:44:24.975Z,6.55
2022-08-30T08:47:52.428Z,5.90
2022-08-30T08:51:14.480Z,5.90
2022-08-30T08:54:20.580Z,6.30
2022-08-30T08:57:24.871Z,5.63
2022-08-30T09:00:29.603Z,5.90
2022-08-30T09:03:32.758Z,5.60
2022-08-30T09:06:50.123Z,5.63
2022-08-30T09:09:53.142Z,5.68
2022-08-30T09:13:00.070Z,5.30
2022-08-30T09:16:05.808Z,5.50
2022-08-30T09:19:09.718Z,5.00
2022-08-30T09:22:22.636Z,5.20
2022-08-30T09:25:29.680Z,5.45
2022-08-30T09:28:34.589Z,5.47
2022-08-30T09:31:52.904Z,5.20
2022-08-30T09:35:06.026Z,5.60
2022-08-30T09:38:23.555Z,5.57
2022-08-30T09:41:32.546Z,6.00
2022-08-30T09:44:37.098Z,5.30
2022-08-30T09:47:42.521Z,5.88
2022-08-30T09:50:46.406Z,5.70
2022-08-30T09:54:18.363Z,5.90
2022-08-30T09:57:37.063Z,6.20
2022-08-30T10:01:12.573Z,5.95
2022-08-30T10:04:39.228Z,6.28
2022-08-30T10:07:54.309Z,6.17
2022-08-30T10:11:01.285Z,6.20
2022-08-30T10:14:25.808Z,5.13
2022-08-30T10:17:48.728Z,6.00
2022-08-30T10:21:09.854Z,5.75
2022-08-30T10:24:20.912Z,5.80
2022-08-30T10:27:27.471Z,5.73
2022-08-30T10:30:33.125Z,6.65
2022-08-30T10:33:43.208Z,5.90
2022-08-30T10:36:54.560Z,5.97
2022-08-30T10:40:24.018Z,6.17
2022-08-30T10:43:32.118Z,6.03
2022-08-30T10:46:43.185Z,6.32
2022-08-30T10:49:47.748Z,6.13
2022-08-30T10:52:57.872Z,6.45
2022-08-30T10:56:06.670Z,6.67
2022-08-30T10:59:11.949Z,6.40
2022-08-30T11:02:32.366Z,6.53
2022-08-30T11:06:12.591Z,6.50
2022-08-30T11:09:44.078Z,7.13
2022-08-30T11:13:03.495Z,6.00
2022-08-30T11:16:13.772Z,6.23
2022-08-30T11:19:32.141Z,6.47
2022-08-30T11:22:39.129Z,6.53
2022-08-30T11:26:01.970Z,7.50
2022-08-30T11:29:06.577Z,7.00
2022-08-30T11:32:17.379Z,7.07
2022-08-30T11:35:37.861Z,6.80
2022-08-30T11:38:41.154Z,7.60
2022-08-30T11:41:48.159Z,6.82
2022-08-30T11:44:51.227Z,6.37
2022-08-30T11:47:55.761Z,6.30
2022-08-30T11:51:07.303Z,6.47
2022-08-30T11:54:26.246Z,6.47
2022-08-30T11:57:53.897Z,6.20
2022-08-30T12:01:41.802Z,6.70
2022-08-30T12:04:46.154Z,7.43
2022-08-30T12:08:02.406Z,6.60
2022-08-30T12:11:05.516Z,7.30
2022-08-30T12:14:09.595Z,7.05
2022-08-30T12:17:43.085Z,7.47
2022-08-30T12:20:47.722Z,7.30
2022-08-30T12:24:21.196Z,6.85
2022-08-30T12:27:32.686Z,6.93
2022-08-30T12:30:39.682Z,7.07
2022-08-30T12:33:47.784Z,7.23
2022-08-30T12:37:08.506Z,6.90
2022-08-30T12:40:22.683Z,6.53
2022-08-30T12:43:40.310Z,7.18
2022-08-30T12:46:45.527Z,7.30
2022-08-30T12:49:48.895Z,6.43
2022-08-30T12:53:03.607Z,7.00
2022-08-30T12:56:14.705Z,6.53
2022-08-30T12:59:52.806Z,6.35
2022-08-30T13:02:59.925Z,6.55
2022-08-30T13:06:06.010Z,5.70
2022-08-30T13:09:09.110Z,6.33
2022-08-30T13:12:26.203Z,6.20
2022-08-30T13:15:34.649Z,6.20
2022-08-30T13:18:37.855Z,6.20
2022-08-30T13:21:51.827Z,6.17
2022-08-30T13:24:54.922Z,5.50
2022-08-30T13:27:58.173Z,6.13
2022-08-30T13:31:01.101Z,5.97
2022-08-30T13:34:07.517Z,5.97
2022-08-30T13:40:44.482Z,6.07
2022-08-30T13:50:37.109Z,5.40
2022-08-30T13:53:55.478Z,5.70
2022-08-30T13:56:59.031Z,6.17
2022-08-30T14:00:02.820Z,6.00
2022-08-30T14:03:15.596Z,5.47
2022-08-30T14:06:32.795Z,6.07
2022-08-30T14:09:37.275Z,5.70
2022-08-30T14:13:02.540Z,5.37
2022-08-30T14:19:27.797Z,5.43
2022-08-30T14:22:30.760Z,5.97
2022-08-30T14:25:34.172Z,4.97
2022-08-30T14:28:37.174Z,5.40
2022-08-30T14:31:40.775Z,6.03
2022-08-30T14:34:43.802Z,5.78
2022-08-30T14:37:49.172Z,5.13
2022-08-30T14:40:53.114Z,5.33
2022-08-30T14:43:56.036Z,5.17
2022-08-30T14:46:59.108Z,5.53
2022-08-30T14:50:03.941Z,5.65
2022-08-30T14:53:07.288Z,5.95
2022-08-30T14:56:12.180Z,5.30
2022-08-30T14:59:15.310Z,5.53
2022-08-30T15:02:22.102Z,5.82
2022-08-30T15:05:27.048Z,5.50
2022-08-30T15:08:30.115Z,5.05
2022-08-30T15:11:33.308Z,5.60
2022-08-30T15:14:36.402Z,5.07
2022-08-30T15:17:39.350Z,5.60
2022-08-30T15:20:47.012Z,5.47
2022-08-30T15:23:50.125Z,5.43
2022-08-30T15:26:55.388Z,5.10
2022-08-30T15:29:58.398Z,5.50
2022-08-30T15:33:01.669Z,5.80
2022-08-30T15:36:05.066Z,5.03
2022-08-30T15:39:08.693Z,4.97
2022-08-30T15:42:16.374Z,5.00
2022-08-30T15:45:22.527Z,4.87
2022-08-30T15:48:25.905Z,5.13
2022-08-30T15:51:30.898Z,5.53
2022-08-30T15:54:48.325Z,5.43
2022-08-30T15:57:51.564Z,5.07
2022-08-30T16:00:54.639Z,5.40
2022-08-30T16:03:58.045Z,5.00
2022-08-30T16:07:01.026Z,5.20
2022-08-30T16:10:04.196Z,5.20
2022-08-30T16:13:07.153Z,5.40
2022-08-30T16:16:10.209Z,5.37
2022-08-30T16:19:14.069Z,5.03
2022-08-30T16:22:22.132Z,5.05
2022-08-30T16:25:25.432Z,5.10
2022-08-30T16:28:43.817Z,5.10
2022-08-30T16:31:47.415Z,5.27
2022-08-30T16:34:50.624Z,5.07
2022-08-30T16:37:53.559Z,4.88
2022-08-30T16:40:57.024Z,4.90
2022-08-30T16:44:00.509Z,5.13
2022-08-30T16:47:03.600Z,5.17
2022-08-30T16:50:07.061Z,4.85
2022-08-30T16:53:11.012Z,5.18
2022-08-30T16:56:21.332Z,5.10
2022-08-30T16:59:24.665Z,5.40
2022-08-30T17:02:27.733Z,4.80
2022-08-30T17:05:30.858Z,4.90
2022-08-30T17:08:33.877Z,4.95
2022-08-30T17:11:37.195Z,4.38
2022-08-30T17:14:40.361Z,5.10
2022-08-30T17:17:43.759Z,5.50
2022-08-30T17:20:47.338Z,5.15
2022-08-30T17:23:50.339Z,5.10
2022-08-30T17:26:54.628Z,4.60
2022-08-30T17:29:57.596Z,5.20
2022-08-30T17:33:00.717Z,4.80
2022-08-30T17:36:04.075Z,5.53
2022-08-30T17:39:10.858Z,5.00
2022-08-30T17:42:14.584Z,5.10
2022-08-30T17:45:18.065Z,5.17
2022-08-30T17:48:21.030Z,4.77
2022-08-30T17:51:23.979Z,5.45
2022-08-30T17:54:27.848Z,5.22
2022-08-30T17:57:31.279Z,5.43
2022-08-30T18:00:34.272Z,6.00
2022-08-30T18:03:37.916Z,5.93
2022-08-30T18:06:41.560Z,5.60
2022-08-30T18:09:45.894Z,5.32
2022-08-30T18:12:50.469Z,4.80
2022-08-30T18:15:53.807Z,5.50
2022-08-30T18:18:57.370Z,5.37
2022-08-30T18:22:03.082Z,5.35
2022-08-30T18:25:07.488Z,5.30
2022-08-30T18:28:12.488Z,5.50
2022-08-30T18:31:15.734Z,5.40
2022-08-30T18:34:18.796Z,5.83
2022-08-30T18:37:25.104Z,5.90
2022-08-30T18:40:28.263Z,6.07
2022-08-30T18:43:31.326Z,5.38
2022-08-30T18:46:34.341Z,5.07
2022-08-30T18:49:38.683Z,5.37
2022-08-30T18:52:41.655Z,5.38
2022-08-30T18:55:49.596Z,5.72
2022-08-30T18:58:53.269Z,5.70
2022-08-30T19:01:56.367Z,5.23
2022-08-30T19:05:01.271Z,5.43
2022-08-30T19:08:04.471Z,5.93
2022-08-30T19:11:08.030Z,5.28
2022-08-30T19:14:11.051Z,5.55
2022-08-30T19:17:16.469Z,5.77
2022-08-30T19:20:21.508Z,5.83
2022-08-30T19:23:27.072Z,5.95
2022-08-30T19:26:30.654Z,5.45
2022-08-30T19:29:33.590Z,5.80
2022-08-30T19:32:36.594Z,5.47
2022-08-30T19:35:39.550Z,5.63
2022-08-30T19:38:44.480Z,5.88
2022-08-30T19:41:48.026Z,5.40
2022-08-30T19:44:51.844Z,5.30
2022-08-30T19:47:54.955Z,5.93
2022-08-30T19:50:58.196Z,6.70
2022-08-30T19:54:01.340Z,6.15
2022-08-30T19:57:04.710Z,6.53
2022-08-30T20:00:11.097Z,6.80
2022-08-30T20:03:17.944Z,6.73
2022-08-30T20:06:21.792Z,5.80
2022-08-30T20:09:25.088Z,6.88
2022-08-30T20:12:29.610Z,6.60
2022-08-30T20:15:32.674Z,6.40
2022-08-30T20:18:36.551Z,6.33
2022-08-30T20:21:39.982Z,6.70
2022-08-30T20:24:44.636Z,6.10
2022-08-30T20:27:47.624Z,7.07
2022-08-30T20:30:51.252Z,6.45
2022-08-30T20:33:54.254Z,6.93
2022-08-30T20:36:57.559Z,6.37
2022-08-30T20:40:02.099Z,6.50
2022-08-30T20:43:05.849Z,6.78
2022-08-30T20:46:10.289Z,5.85
2022-08-30T20:49:13.869Z,6.27
2022-08-30T20:52:17.043Z,5.87
2022-08-30T20:55:21.613Z,5.72
2022-08-30T20:58:25.064Z,6.45
2022-08-30T21:01:28.791Z,5.60
2022-08-30T21:04:32.814Z,5.60
2022-08-30T21:07:35.861Z,5.40
2022-08-30T21:10:38.781Z,4.93
2022-08-30T21:13:41.790Z,5.63
2022-08-30T21:16:45.121Z,5.40
2022-08-30T21:19:48.242Z,5.77
2022-08-30T21:22:51.233Z,5.93
2022-08-30T21:25:54.177Z,5.60
2022-08-30T21:28:57.584Z,5.57
2022-08-30T21:32:00.543Z,5.68
2022-08-30T21:35:22.158Z,6.10
2022-08-30T21:38:26.018Z,5.57
2022-08-30T21:41:29.405Z,6.05
2022-08-30T21:44:32.352Z,6.15
2022-08-30T21:47:35.434Z,5.88
2022-08-30T21:50:42.309Z,5.93
2022-08-30T21:53:45.333Z,6.83
2022-08-30T21:56:49.397Z,6.30
2022-08-30T21:59:53.012Z,6.60
2022-08-30T22:02:56.027Z,5.90
2022-08-30T22:05:58.993Z,5.50
2022-08-30T22:09:02.676Z,6.07
2022-08-30T22:12:06.839Z,6.10
2022-08-30T22:15:11.591Z,6.50
2022-08-30T22:18:14.557Z,5.57
2022-08-30T22:21:21.150Z,5.30
2022-08-30T22:24:24.091Z,5.80
2022-08-30T22:27:27.097Z,5.68
2022-08-30T22:30:30.047Z,5.57
2022-08-30T22:33:33.038Z,4.95
2022-08-30T22:36:37.436Z,5.37
2022-08-30T22:39:40.393Z,5.10
2022-08-30T22:42:48.135Z,5.70
2022-08-30T22:45:51.497Z,5.40
2022-08-30T22:48:54.737Z,6.25
2022-08-30T22:51:57.675Z,5.40
2022-08-30T22:55:00.630Z,5.83
2022-08-30T22:58:03.541Z,5.72
2022-08-30T23:01:06.668Z,5.82
2022-08-30T23:04:09.800Z,6.40
2022-08-30T23:07:12.832Z,5.93
2022-08-30T23:10:15.821Z,6.53
2022-08-30T23:13:18.938Z,5.70
2022-08-30T23:16:22.185Z,6.10
2022-08-30T23:19:26.680Z,6.32
2022-08-30T23:22:31.573Z,5.80
2022-08-30T23:25:53.165Z,5.93
2022-08-30T23:29:14.683Z,6.00
2022-08-30T23:32:36.189Z,6.32
2022-08-30T23:35:58.947Z,6.90
2022-08-30T23:39:21.193Z,6.40
2022-08-30T23:42:42.690Z,6.90
2022-08-30T23:46:04.672Z,7.43
2022-08-30T23:49:25.990Z,7.00
2022-08-30T23:52:47.623Z,6.82
2022-08-30T23:56:09.319Z,7.03
2022-08-30T23:59:33.270Z,6.77
